Time;durP1;ratioP1;P1;durP2;ratioP2;P2;SDS_P1;SDS_P2;PMS_P1;PMS_P2;Temp;Humidity;BMP_temperature;BMP_pressure;BME280_temperature;BME280_humidity;BME280_pressure;Samples;Min_cycle;Max_cycle;Signal;HPM_P1;HPM_P2
2021/01/21 00:01:34;;;;;;;26.67;24.02;;;23.60;65.80;;;;;;5047371;28;20275;-51
2021/01/21 00:04:05;;;;;;;29.58;26.42;;;23.60;65.90;;;;;;5046071;28;20229;-49
2021/01/21 00:06:39;;;;;;;30.98;27.85;;;23.60;65.90;;;;;;5048496;28;20680;-49
2021/01/21 00:09:12;;;;;;;31.65;27.40;;;23.60;66.10;;;;;;5044864;28;20230;-51
2021/01/21 00:11:43;;;;;;;29.27;26.35;;;23.60;66.20;;;;;;5047035;28;20233;-50
2021/01/21 00:14:14;;;;;;;29.88;26.65;;;23.60;66.20;;;;;;5053193;28;20304;-50
2021/01/21 00:16:44;;;;;;;27.52;24.70;;;23.60;66.30;;;;;;5045117;28;20230;-55
2021/01/21 00:19:15;;;;;;;26.40;23.73;;;23.60;66.40;;;;;;5044434;28;20744;-51
2021/01/21 00:21:45;;;;;;;31.27;25.52;;;23.50;66.40;;;;;;5041208;28;20662;-52
2021/01/21 00:24:17;;;;;;;28.65;25.65;;;23.60;66.50;;;;;;5045339;28;20262;-51
2021/01/21 00:26:48;;;;;;;28.42;25.63;;;23.60;66.70;;;;;;5048984;28;20256;-55
2021/01/21 00:29:18;;;;;;;29.90;26.75;;;23.60;66.70;;;;;;5046731;28;20226;-51
2021/01/21 00:31:49;;;;;;;28.58;25.80;;;23.60;66.70;;;;;;5050033;28;20238;-51
2021/01/21 00:34:20;;;;;;;26.63;24.08;;;23.60;66.80;;;;;;5051414;28;20804;-51
2021/01/21 00:36:50;;;;;;;27.88;24.67;;;23.60;66.90;;;;;;5050825;28;20229;-51
2021/01/21 00:39:23;;;;;;;27.85;25.05;;;23.70;67.00;;;;;;5042706;28;20230;-52
2021/01/21 00:41:53;;;;;;;25.98;23.40;;;23.70;67.30;;;;;;5040114;28;20254;-51
2021/01/21 00:44:24;;;;;;;25.98;23.50;;;23.80;67.30;;;;;;5043995;28;20301;-52
2021/01/21 00:46:54;;;;;;;27.20;24.50;;;23.70;67.40;;;;;;5047359;28;20229;-51
2021/01/21 00:49:25;;;;;;;28.55;25.70;;;23.80;67.50;;;;;;5041899;28;20225;-53
2021/01/21 00:51:56;;;;;;;26.42;23.83;;;23.80;67.50;;;;;;5047258;28;20234;-52
2021/01/21 00:54:28;;;;;;;25.92;23.50;;;23.90;67.50;;;;;;5048059;28;20697;-50
2021/01/21 00:56:58;;;;;;;27.83;24.88;;;23.90;67.80;;;;;;5047290;28;20261;-54
2021/01/21 00:59:28;;;;;;;29.05;26.05;;;24.00;68.00;;;;;;5036739;28;20708;-50
2021/01/21 01:01:59;;;;;;;29.23;26.35;;;24.00;68.20;;;;;;5047239;28;20985;-52
2021/01/21 01:04:30;;;;;;;29.83;26.65;;;24.00;68.20;;;;;;5038627;28;20241;-52
2021/01/21 01:07:01;;;;;;;29.65;26.58;;;24.10;68.40;;;;;;5028118;28;20600;-52
2021/01/21 01:09:33;;;;;;;30.42;27.13;;;24.10;68.40;;;;;;5026399;28;20714;-53
2021/01/21 01:12:03;;;;;;;28.73;26.05;;;24.20;68.70;;;;;;5025032;28;20242;-50
2021/01/21 01:14:34;;;;;;;27.02;24.42;;;24.30;68.70;;;;;;5023468;28;20231;-55
2021/01/21 01:17:05;;;;;;;29.77;26.98;;;24.30;68.90;;;;;;5005184;28;20255;-51
2021/01/21 01:19:37;;;;;;;30.65;27.40;;;24.40;69.20;;;;;;5018105;28;20239;-51
2021/01/21 01:22:07;;;;;;;28.75;25.95;;;24.40;69.20;;;;;;5034001;28;20229;-49
2021/01/21 01:24:40;;;;;;;30.25;27.15;;;24.50;69.40;;;;;;5031933;28;20226;-51
2021/01/21 01:27:11;;;;;;;29.48;26.52;;;24.50;69.60;;;;;;5030625;28;20297;-52
2021/01/21 01:29:42;;;;;;;31.60;28.42;;;24.60;69.80;;;;;;5026938;28;20588;-53
2021/01/21 01:32:13;;;;;;;31.92;28.80;;;24.70;70.20;;;;;;5027815;28;20600;-53
2021/01/21 01:34:43;;;;;;;33.65;30.25;;;24.70;70.20;;;;;;5030452;28;20219;-53
2021/01/21 01:37:14;;;;;;;34.47;31.08;;;24.80;70.30;;;;;;5028859;28;20223;-52
2021/01/21 01:39:46;;;;;;;33.03;29.80;;;24.90;70.50;;;;;;5027918;28;20837;-52
2021/01/21 01:42:16;;;;;;;31.42;28.13;;;24.90;70.60;;;;;;5030963;28;20604;-51
2021/01/21 01:44:55;;;;;;;35.75;32.30;;;25.00;70.10;;;;;;5011262;28;20272;-53
2021/01/21 01:47:29;;;;;;;33.83;30.55;;;25.10;69.30;;;;;;5018002;28;20325;-51
2021/01/21 01:50:07;;;;;;;36.72;32.97;;;25.20;68.70;;;;;;5015797;28;20234;-50
2021/01/21 01:52:42;;;;;;;37.90;33.92;;;25.30;68.10;;;;;;5034750;28;20234;-53
2021/01/21 01:55:16;;;;;;;35.88;32.35;;;25.40;67.50;;;;;;4986746;28;20232;-54
2021/01/21 01:57:47;;;;;;;38.25;34.53;;;25.40;67.10;;;;;;4977173;28;20232;-53
2021/01/21 02:00:19;;;;;;;39.20;35.03;;;25.50;66.60;;;;;;4935504;29;20241;-50
2021/01/21 02:02:50;;;;;;;41.15;36.97;;;25.60;66.00;;;;;;4939122;28;20356;-53
2021/01/21 02:05:21;;;;;;;43.10;38.65;;;25.70;65.10;;;;;;4951287;28;20256;-53
2021/01/21 02:07:52;;;;;;;39.20;35.15;;;25.80;64.60;;;;;;4954678;28;20233;-52
2021/01/21 02:10:24;;;;;;;44.92;40.28;;;25.90;64.60;;;;;;4942448;28;20240;-49
2021/01/21 02:13:32;;;;;;;49.28;44.00;;;26.00;64.10;;;;;;4941348;28;20240;-53
2021/01/21 02:16:25;;;;;;;45.45;40.90;;;26.10;63.50;;;;;;4945078;28;20244;-54
2021/01/21 02:19:04;;;;;;;49.83;44.67;;;26.30;63.50;;;;;;4916091;28;20328;-52
2021/01/21 02:22:00;;;;;;;48.22;43.22;;;26.40;62.90;;;;;;4900210;29;20317;-50
2021/01/21 02:24:50;;;;;;;50.22;45.08;;;26.50;62.70;;;;;;4930431;28;20246;-53
2021/01/21 02:27:23;;;;;;;43.15;38.55;;;26.60;62.40;;;;;;4948309;28;20233;-52
2021/01/21 02:29:53;;;;;;;44.72;40.20;;;26.70;62.70;;;;;;4945227;28;20228;-53
2021/01/21 02:32:38;;;;;;;48.60;43.50;;;26.80;62.50;;;;;;4948702;28;20245;-52
2021/01/21 02:35:11;;;;;;;47.22;42.72;;;26.90;61.90;;;;;;4926050;28;20833;-50
2021/01/21 02:37:49;;;;;;;44.97;40.45;;;27.00;62.00;;;;;;4928127;28;20245;-51
2021/01/21 02:40:19;;;;;;;43.15;38.72;;;27.10;61.60;;;;;;4917627;29;20240;-53
2021/01/21 02:42:50;;;;;;;45.53;40.95;;;27.20;61.80;;;;;;4915783;28;20238;-49
2021/01/21 02:45:21;;;;;;;47.03;41.92;;;27.30;61.30;;;;;;4916507;29;20233;-49
2021/01/21 02:47:51;;;;;;;42.85;38.65;;;27.40;60.60;;;;;;4928199;29;20304;-55
2021/01/21 02:50:23;;;;;;;41.70;37.42;;;27.50;60.60;;;;;;4924103;29;20278;-49
2021/01/21 02:52:56;;;;;;;40.28;36.35;;;27.60;60.10;;;;;;4970464;28;20837;-52
2021/01/21 02:55:28;;;;;;;43.70;39.42;;;27.70;59.80;;;;;;4995632;28;20751;-53
2021/01/21 02:58:03;;;;;;;41.72;37.55;;;27.80;58.90;;;;;;4987144;28;20232;-54
2021/01/21 03:00:33;;;;;;;41.38;37.15;;;27.90;58.80;;;;;;4955015;28;20294;-49
2021/01/21 03:03:06;;;;;;;41.15;36.95;;;28.10;58.20;;;;;;5001448;28;20325;-49
2021/01/21 03:05:38;;;;;;;39.88;36.30;;;28.10;58.00;;;;;;5007298;28;20233;-53
2021/01/21 03:08:09;;;;;;;41.80;37.80;;;28.20;57.40;;;;;;5040468;28;20287;-51
2021/01/21 03:10:40;;;;;;;41.75;37.70;;;28.30;57.60;;;;;;5043780;28;20234;-54
2021/01/21 03:13:10;;;;;;;37.53;33.85;;;28.40;57.10;;;;;;5044186;28;20336;-54
2021/01/21 03:15:41;;;;;;;38.35;34.35;;;28.60;56.40;;;;;;5033624;28;20326;-63
2021/01/21 03:18:13;;;;;;;36.90;33.05;;;28.60;56.00;;;;;;5037065;28;20269;-58
2021/01/21 03:20:45;;;;;;;36.28;32.90;;;28.70;55.50;;;;;;5043099;28;20610;-49
2021/01/21 03:23:16;;;;;;;39.08;35.38;;;28.90;55.40;;;;;;5038344;28;20233;-51
2021/01/21 03:25:47;;;;;;;44.78;40.38;;;28.90;54.70;;;;;;5039147;28;20233;-53
2021/01/21 03:28:18;;;;;;;43.30;39.00;;;29.00;54.10;;;;;;5047122;28;20261;-49
2021/01/21 03:30:49;;;;;;;46.42;41.55;;;29.10;54.00;;;;;;5041384;28;20234;-50
2021/01/21 03:33:20;;;;;;;42.88;38.70;;;29.20;54.00;;;;;;5045098;28;20234;-50
2021/01/21 03:35:52;;;;;;;41.38;37.28;;;29.20;54.10;;;;;;5059545;28;20268;-50
2021/01/21 03:38:23;;;;;;;41.55;37.60;;;29.30;53.80;;;;;;5053780;28;20648;-50
2021/01/21 03:40:53;;;;;;;45.13;40.53;;;29.40;53.90;;;;;;5043748;28;20232;-52
2021/01/21 03:43:24;;;;;;;41.28;37.20;;;29.40;53.20;;;;;;5060469;28;20243;-51
2021/01/21 03:46:00;;;;;;;39.80;35.85;;;29.50;53.80;;;;;;5042547;28;20244;-53
2021/01/21 03:48:33;;;;;;;45.40;41.10;;;29.60;53.80;;;;;;5039205;28;20602;-52
2021/01/21 03:51:05;;;;;;;48.15;43.33;;;29.70;52.80;;;;;;5053138;28;20707;-56
2021/01/21 03:53:35;;;;;;;43.42;39.13;;;29.70;52.50;;;;;;5044603;28;20613;-54
2021/01/21 03:56:06;;;;;;;48.33;43.67;;;29.80;53.00;;;;;;5044744;28;20920;-55
2021/01/21 03:58:37;;;;;;;46.65;42.10;;;29.90;52.60;;;;;;5033040;28;20676;-56
2021/01/21 04:01:08;;;;;;;43.58;39.25;;;30.00;52.50;;;;;;5037937;28;20226;-53
2021/01/21 04:03:39;;;;;;;53.08;47.58;;;30.00;52.50;;;;;;5044224;28;20225;-52
2021/01/21 04:06:11;;;;;;;52.33;46.97;;;30.10;53.10;;;;;;5043300;28;20312;-52
2021/01/21 04:08:42;;;;;;;51.28;46.20;;;30.20;53.20;;;;;;5044174;28;21689;-51
2021/01/21 04:11:12;;;;;;;48.53;43.88;;;30.30;53.30;;;;;;5044635;28;21037;-52
2021/01/21 04:13:43;;;;;;;48.53;43.58;;;30.40;53.40;;;;;;5047720;28;20233;-50
2021/01/21 04:16:13;;;;;;;54.70;49.17;;;30.50;53.60;;;;;;5051177;28;20747;-54
2021/01/21 04:18:45;;;;;;;47.80;43.10;;;30.60;52.50;;;;;;5048192;28;20249;-53
2021/01/21 04:21:17;;;;;;;51.47;46.42;;;30.70;52.80;;;;;;5044825;28;20249;-56
2021/01/21 04:23:48;;;;;;;54.60;49.13;;;30.70;52.80;;;;;;5045522;28;20618;-57
2021/01/21 04:26:19;;;;;;;48.92;44.13;;;30.90;53.00;;;;;;5043540;28;20673;-55
2021/01/21 04:28:50;;;;;;;52.75;47.40;;;30.90;52.80;;;;;;5044175;28;20229;-54
2021/01/21 04:31:21;;;;;;;55.03;49.35;;;31.10;53.10;;;;;;5045228;28;20485;-52
2021/01/21 04:33:51;;;;;;;48.63;43.72;;;31.10;52.60;;;;;;5045406;28;20230;-50
2021/01/21 04:36:23;;;;;;;48.47;43.33;;;31.20;52.10;;;;;;5048744;28;20235;-56
2021/01/21 04:38:54;;;;;;;43.60;39.17;;;31.30;51.50;;;;;;5041451;28;20580;-55
2021/01/21 04:41:25;;;;;;;40.25;36.33;;;31.30;51.30;;;;;;5045556;28;20327;-55
2021/01/21 04:43:56;;;;;;;43.25;38.97;;;31.40;51.10;;;;;;5041984;28;20292;-50
2021/01/21 04:46:26;;;;;;;41.35;37.22;;;31.40;50.90;;;;;;4986837;28;20782;-50
2021/01/21 04:48:57;;;;;;;41.00;37.10;;;31.50;50.80;;;;;;4927244;29;20240;-50
2021/01/21 04:51:30;;;;;;;39.05;35.35;;;31.50;50.80;;;;;;4924442;28;20243;-51
2021/01/21 04:54:04;;;;;;;38.60;34.95;;;31.60;50.90;;;;;;4932855;28;20225;-54
2021/01/21 04:56:39;;;;;;;60.58;54.72;;;31.70;51.00;;;;;;4928152;28;20257;-52
2021/01/21 04:59:11;;;;;;;58.15;52.15;;;31.70;51.30;;;;;;4925995;29;20233;-51
2021/01/21 05:01:41;;;;;;;70.30;63.67;;;31.80;51.80;;;;;;4930669;28;20661;-53
2021/01/21 05:04:12;;;;;;;58.58;52.83;;;31.70;51.70;;;;;;4906836;29;20241;-56
2021/01/21 05:06:44;;;;;;;58.38;52.67;;;31.70;52.00;;;;;;4904062;29;20698;-55
2021/01/21 05:09:15;;;;;;;60.53;54.75;;;31.60;52.10;;;;;;4907763;29;20277;-54
2021/01/21 05:11:45;;;;;;;63.15;57.15;;;31.50;52.20;;;;;;4949320;28;20240;-54
2021/01/21 05:14:16;;;;;;;65.15;59.03;;;31.50;52.70;;;;;;4947577;28;20326;-53
2021/01/21 05:16:47;;;;;;;59.13;53.40;;;31.40;52.80;;;;;;4934437;28;20720;-53
2021/01/21 05:19:40;;;;;;;67.93;61.10;;;31.30;53.20;;;;;;4943808;28;20962;-52
2021/01/21 05:22:16;;;;;;;57.58;51.75;;;31.20;53.20;;;;;;4945753;28;20308;-54
2021/01/21 05:24:47;;;;;;;69.57;62.75;;;31.10;53.40;;;;;;4936681;29;20307;-54
2021/01/21 05:27:18;;;;;;;53.65;48.47;;;31.00;53.30;;;;;;4938371;28;20272;-54
2021/01/21 05:29:49;;;;;;;65.57;59.22;;;31.00;53.50;;;;;;4944728;28;20303;-53
2021/01/21 05:32:20;;;;;;;69.28;62.67;;;31.00;53.30;;;;;;4935393;28;20341;-53
2021/01/21 05:34:51;;;;;;;63.10;57.00;;;31.00;53.00;;;;;;4944090;28;20239;-53
2021/01/21 05:37:23;;;;;;;60.53;54.50;;;30.90;53.10;;;;;;4928015;28;20244;-51
2021/01/21 05:39:53;;;;;;;60.25;54.00;;;30.90;53.30;;;;;;4930169;28;20285;-54
2021/01/21 05:42:25;;;;;;;57.40;51.67;;;30.90;53.40;;;;;;4918246;28;20250;-54
2021/01/21 05:44:56;;;;;;;61.03;54.92;;;30.90;53.50;;;;;;4883552;29;20247;-54
2021/01/21 05:47:27;;;;;;;56.80;51.30;;;30.80;53.30;;;;;;4834990;29;20251;-53
2021/01/21 05:49:58;;;;;;;54.88;49.38;;;30.80;53.20;;;;;;4837619;29;20247;-53
2021/01/21 05:52:30;;;;;;;50.90;46.03;;;30.80;53.30;;;;;;4835666;29;20364;-54
2021/01/21 05:55:00;;;;;;;47.83;43.30;;;30.80;53.10;;;;;;4834921;29;20247;-55
2021/01/21 05:57:32;;;;;;;50.30;45.30;;;30.80;53.10;;;;;;4836998;29;20347;-55
2021/01/21 06:00:03;;;;;;;55.45;50.15;;;30.90;53.20;;;;;;4838714;29;20247;-55
2021/01/21 06:02:33;;;;;;;46.88;42.58;;;30.90;53.10;;;;;;4813346;29;20660;-55
2021/01/21 06:05:08;;;;;;;52.92;47.83;;;30.90;53.20;;;;;;4798334;29;20350;-53
2021/01/21 06:07:40;;;;;;;53.30;48.10;;;30.90;53.00;;;;;;4797837;29;20238;-55
2021/01/21 06:10:12;;;;;;;54.78;49.45;;;31.00;53.20;;;;;;4798890;29;20288;-56
2021/01/21 06:12:45;;;;;;;53.25;48.05;;;31.00;53.30;;;;;;4763444;29;20326;-55
2021/01/21 06:15:17;;;;;;;56.42;51.08;;;31.00;53.30;;;;;;4734886;29;20283;-50
2021/01/21 06:17:58;;;;;;;58.10;52.40;;;31.00;53.30;;;;;;4746496;29;20246;-55
2021/01/21 06:21:00;;;;;;;58.20;52.30;;;31.00;53.30;;;;;;4797931;29;20340;-52
2021/01/21 06:23:33;;;;;;;59.17;53.47;;;31.00;53.00;;;;;;4819992;29;20249;-51
2021/01/21 06:26:04;;;;;;;63.13;57.17;;;31.00;53.10;;;;;;4813190;29;20248;-55
2021/01/21 06:28:35;;;;;;;66.28;60.08;;;31.00;53.30;;;;;;4805346;29;20305;-52
2021/01/21 06:31:06;;;;;;;57.30;51.55;;;30.90;53.00;;;;;;4886719;29;20243;-54
2021/01/21 06:33:41;;;;;;;59.55;53.92;;;30.90;53.10;;;;;;4902329;29;20230;-55
2021/01/21 06:36:14;;;;;;;65.00;58.47;;;30.90;53.10;;;;;;4920269;28;20245;-52
2021/01/21 06:38:46;;;;;;;56.78;51.22;;;30.90;52.90;;;;;;4928515;28;20381;-52
2021/01/21 06:41:18;;;;;;;55.58;49.92;;;30.90;53.30;;;;;;4947119;28;20887;-53
2021/01/21 06:43:49;;;;;;;54.40;49.20;;;30.90;53.90;;;;;;4946169;28;20711;-51
2021/01/21 06:46:20;;;;;;;63.80;57.80;;;30.90;53.90;;;;;;4980122;28;20223;-53
2021/01/21 06:49:09;;;;;;;62.72;56.65;;;31.00;53.30;;;;;;5007848;28;20239;-54
2021/01/21 06:51:49;;;;;;;63.67;57.60;;;31.00;53.80;;;;;;4984349;28;20317;-51
2021/01/21 06:54:21;;;;;;;57.45;51.58;;;31.00;52.90;;;;;;5013611;28;20262;-53
2021/01/21 06:56:52;;;;;;;53.83;48.53;;;31.00;53.20;;;;;;5013929;28;20292;-50
2021/01/21 06:59:55;;;;;;;57.13;51.63;;;31.00;53.00;;;;;;4992209;28;20709;-53
2021/01/21 07:02:45;;;;;;;50.33;45.53;;;31.00;52.90;;;;;;5010082;28;20234;-52
2021/01/21 07:05:17;;;;;;;50.33;45.75;;;31.00;52.80;;;;;;5035521;28;20229;-52
2021/01/21 07:08:07;;;;;;;61.03;55.00;;;31.00;53.00;;;;;;5053859;28;20229;-53
2021/01/21 07:10:41;;;;;;;60.05;54.40;;;31.00;53.20;;;;;;5033815;28;20243;-52
2021/01/21 07:13:13;;;;;;;59.38;53.97;;;31.00;53.30;;;;;;4988355;28;20239;-49
2021/01/21 07:15:47;;;;;;;60.95;55.03;;;31.00;53.10;;;;;;4987308;28;20246;-53
2021/01/21 07:18:22;;;;;;;53.80;48.85;;;31.00;53.00;;;;;;4985459;28;20306;-51
2021/01/21 07:21:17;;;;;;;56.40;51.22;;;31.00;53.10;;;;;;4988073;28;20315;-52
2021/01/21 07:23:48;;;;;;;55.30;50.20;;;31.00;52.80;;;;;;4993120;28;20230;-54
2021/01/21 07:26:30;;;;;;;63.67;57.70;;;31.00;53.10;;;;;;5004251;28;20911;-53
2021/01/21 07:29:11;;;;;;;58.42;52.75;;;31.00;53.10;;;;;;4989335;28;20235;-49
2021/01/21 07:32:10;;;;;;;54.50;49.28;;;30.90;53.20;;;;;;5024789;28;20233;-52
2021/01/21 07:34:45;;;;;;;54.50;49.25;;;30.90;53.40;;;;;;5043868;28;20229;-55
2021/01/21 07:37:25;;;;;;;65.28;58.90;;;31.00;53.40;;;;;;5055462;28;20226;-53
2021/01/21 07:40:02;;;;;;;62.42;55.90;;;30.90;53.40;;;;;;5048487;28;20344;-53
2021/01/21 07:43:02;;;;;;;68.65;62.20;;;30.90;53.40;;;;;;5060042;28;20738;-52
2021/01/21 07:45:33;;;;;;;69.85;62.95;;;30.90;53.40;;;;;;5044222;28;20282;-51
2021/01/21 07:48:22;;;;;;;67.20;60.42;;;30.80;53.40;;;;;;5061528;28;20233;-49
2021/01/21 07:50:52;;;;;;;60.80;54.50;;;30.80;53.60;;;;;;5042038;28;20280;-50
2021/01/21 07:53:24;;;;;;;65.35;58.67;;;30.70;53.70;;;;;;5043294;28;20263;-51
2021/01/21 07:55:55;;;;;;;68.25;61.65;;;30.70;53.80;;;;;;5048666;28;20237;-50
2021/01/21 07:58:35;;;;;;;63.10;56.85;;;30.60;53.80;;;;;;5045627;28;20590;-49
2021/01/21 08:01:08;;;;;;;59.13;53.22;;;30.60;54.00;;;;;;5043108;28;20245;-51
2021/01/21 08:03:40;;;;;;;65.97;59.65;;;30.50;54.10;;;;;;5050819;28;20328;-53
2021/01/21 08:06:13;;;;;;;59.47;53.67;;;30.50;54.00;;;;;;5039076;28;20229;-51
2021/01/21 08:08:44;;;;;;;60.00;54.17;;;30.40;54.10;;;;;;5043404;28;21506;-54
2021/01/21 08:11:15;;;;;;;55.00;49.67;;;30.40;54.10;;;;;;5049628;28;20238;-54
2021/01/21 08:13:47;;;;;;;52.05;47.17;;;30.40;54.10;;;;;;5051725;28;21020;-55
2021/01/21 08:16:18;;;;;;;55.40;50.28;;;30.30;54.00;;;;;;5047798;28;20598;-53
2021/01/21 08:18:49;;;;;;;55.33;50.03;;;30.30;54.00;;;;;;5043397;28;20239;-53
2021/01/21 08:21:22;;;;;;;53.80;48.70;;;30.30;54.10;;;;;;5045807;28;20221;-53
2021/01/21 08:23:56;;;;;;;54.35;49.15;;;30.30;53.80;;;;;;5043326;28;20225;-53
2021/01/21 08:26:28;;;;;;;56.45;51.20;;;30.30;54.10;;;;;;5049391;28;20308;-54
2021/01/21 08:28:59;;;;;;;51.67;46.45;;;30.30;54.00;;;;;;5044240;28;20233;-51
2021/01/21 08:31:38;;;;;;;59.92;54.28;;;30.30;53.90;;;;;;5037222;28;20234;-51
2021/01/21 08:34:10;;;;;;;62.88;56.88;;;30.30;54.20;;;;;;5048645;28;20253;-48
2021/01/21 08:36:40;;;;;;;59.63;53.92;;;30.30;54.40;;;;;;5056760;28;20225;-48
2021/01/21 08:39:12;;;;;;;56.22;50.65;;;30.20;54.30;;;;;;5045321;28;20300;-51
2021/01/21 08:41:42;;;;;;;53.30;48.08;;;30.20;54.40;;;;;;5046842;28;20695;-53
2021/01/21 08:44:18;;;;;;;51.42;46.47;;;30.20;54.50;;;;;;5059658;28;20260;-52
2021/01/21 08:46:58;;;;;;;51.40;46.33;;;30.20;54.60;;;;;;5035171;28;20237;-53
2021/01/21 08:49:34;;;;;;;47.83;43.20;;;30.20;54.80;;;;;;5045747;28;20317;-52
2021/01/21 08:52:08;;;;;;;51.50;46.60;;;30.20;54.80;;;;;;5011876;28;20321;-51
2021/01/21 08:54:50;;;;;;;56.88;51.40;;;30.30;54.90;;;;;;5042160;28;20233;-49
2021/01/21 08:57:23;;;;;;;58.25;52.80;;;30.20;54.80;;;;;;5003311;28;20690;-53
2021/01/21 08:59:54;;;;;;;49.15;44.70;;;30.30;55.60;;;;;;5013302;28;20238;-54
2021/01/21 09:02:43;;;;;;;44.03;39.90;;;30.20;54.90;;;;;;5007851;28;20256;-52
2021/01/21 09:05:14;;;;;;;51.00;46.08;;;30.20;55.00;;;;;;5012582;28;20234;-51
2021/01/21 09:07:44;;;;;;;48.03;43.55;;;30.20;55.20;;;;;;5020168;28;20257;-51
2021/01/21 09:10:15;;;;;;;50.08;45.42;;;30.20;55.40;;;;;;5009663;28;21253;-52
2021/01/21 09:12:46;;;;;;;47.25;42.97;;;30.20;55.50;;;;;;5009502;28;20751;-49
2021/01/21 09:15:17;;;;;;;48.25;43.55;;;30.20;55.70;;;;;;4952422;28;20680;-52
2021/01/21 09:18:03;;;;;;;51.33;46.13;;;30.30;55.90;;;;;;4952001;28;20685;-50
2021/01/21 09:20:34;;;;;;;46.53;42.13;;;30.30;56.20;;;;;;4941520;28;20229;-50
2021/01/21 09:23:16;;;;;;;55.72;50.38;;;30.30;56.00;;;;;;4941533;28;20240;-51
2021/01/21 09:25:46;;;;;;;49.40;44.67;;;30.30;56.50;;;;;;4942959;28;20240;-49
2021/01/21 09:28:17;;;;;;;50.42;45.60;;;30.30;56.30;;;;;;4913761;29;20237;-51
2021/01/21 09:30:48;;;;;;;48.20;43.65;;;30.30;56.40;;;;;;4929269;29;20427;-55
2021/01/21 09:33:19;;;;;;;55.13;49.90;;;30.30;56.30;;;;;;4931343;29;20241;-49
2021/01/21 09:35:54;;;;;;;45.95;41.90;;;30.30;56.40;;;;;;4924417;29;20226;-55
2021/01/21 09:38:24;;;;;;;46.85;41.80;;;30.20;56.40;;;;;;4928838;29;20261;-55
2021/01/21 09:40:55;;;;;;;45.45;41.05;;;30.30;56.30;;;;;;4925677;29;20415;-53
2021/01/21 09:43:26;;;;;;;45.38;41.25;;;30.30;56.40;;;;;;4922987;28;20262;-54
2021/01/21 09:45:57;;;;;;;44.72;40.30;;;30.20;56.30;;;;;;4969173;28;20254;-52
2021/01/21 09:48:29;;;;;;;43.83;39.80;;;30.30;56.40;;;;;;5001225;28;20309;-56
2021/01/21 09:50:59;;;;;;;45.63;41.28;;;30.20;56.30;;;;;;5003186;28;20253;-50
2021/01/21 09:53:30;;;;;;;48.80;43.92;;;30.20;56.40;;;;;;4998532;28;20251;-54
2021/01/21 09:56:00;;;;;;;52.65;47.65;;;30.20;56.60;;;;;;5005178;28;20239;-52
2021/01/21 09:58:31;;;;;;;51.95;46.28;;;30.20;56.80;;;;;;5013591;28;20615;-51
2021/01/21 10:01:03;;;;;;;45.83;41.28;;;30.20;56.80;;;;;;5054312;28;20236;-56
2021/01/21 10:03:51;;;;;;;44.70;40.38;;;30.20;57.10;;;;;;5051971;28;20225;-55
2021/01/21 10:06:21;;;;;;;44.92;40.85;;;30.20;57.00;;;;;;5048934;28;20237;-56
2021/01/21 10:08:52;;;;;;;46.22;42.00;;;30.20;57.00;;;;;;5042510;28;20317;-53
2021/01/21 10:11:22;;;;;;;50.70;46.20;;;30.20;57.00;;;;;;5050372;28;20332;-54
2021/01/21 10:13:53;;;;;;;49.67;44.83;;;30.20;57.10;;;;;;5039250;28;20225;-49
2021/01/21 10:16:25;;;;;;;47.53;42.95;;;30.20;57.00;;;;;;5059172;28;20689;-52
2021/01/21 10:18:56;;;;;;;49.58;44.67;;;30.20;56.90;;;;;;5046973;28;20222;-52
2021/01/21 10:21:27;;;;;;;49.33;44.83;;;30.20;56.80;;;;;;5053868;28;20231;-51
2021/01/21 10:23:57;;;;;;;50.58;45.97;;;30.20;56.80;;;;;;5047546;28;20709;-55
2021/01/21 10:26:31;;;;;;;52.10;47.25;;;30.20;57.10;;;;;;5047144;28;20218;-52
2021/01/21 10:29:02;;;;;;;44.72;40.47;;;30.20;57.30;;;;;;5042517;28;20627;-52
2021/01/21 10:31:35;;;;;;;49.25;44.45;;;30.20;57.60;;;;;;5044117;28;20798;-53
2021/01/21 10:34:06;;;;;;;47.42;43.10;;;30.40;57.70;;;;;;5042793;28;20248;-54
2021/01/21 10:36:36;;;;;;;40.25;36.40;;;30.50;57.50;;;;;;5038755;28;20398;-54
2021/01/21 10:39:08;;;;;;;36.95;33.40;;;30.70;57.30;;;;;;5041615;28;20241;-50
2021/01/21 10:41:40;;;;;;;40.63;36.72;;;30.80;57.10;;;;;;5039236;28;20258;-54
2021/01/21 10:44:10;;;;;;;41.13;37.28;;;30.90;56.80;;;;;;5036548;28;20233;-54
2021/01/21 10:46:42;;;;;;;41.30;37.47;;;31.00;56.60;;;;;;5046152;28;20248;-53
2021/01/21 10:49:14;;;;;;;37.78;34.22;;;31.20;56.60;;;;;;5047752;28;20233;-52
2021/01/21 10:51:44;;;;;;;38.63;34.88;;;31.20;56.50;;;;;;5039241;28;20304;-50
2021/01/21 10:54:18;;;;;;;42.72;38.78;;;31.30;56.50;;;;;;5047052;28;20681;-52
2021/01/21 10:56:48;;;;;;;40.03;36.15;;;31.30;56.30;;;;;;5037004;28;20713;-53
2021/01/21 10:59:19;;;;;;;38.85;35.20;;;31.30;56.20;;;;;;5049471;28;20325;-52
2021/01/21 11:01:53;;;;;;;35.85;32.55;;;31.30;56.20;;;;;;5061412;28;20233;-52
2021/01/21 11:04:25;;;;;;;38.47;35.13;;;31.20;56.10;;;;;;5030055;28;20229;-50
2021/01/21 11:06:55;;;;;;;35.70;32.40;;;31.20;56.20;;;;;;5020027;28;20262;-53
2021/01/21 11:09:35;;;;;;;38.58;34.97;;;31.10;56.20;;;;;;5021268;28;20641;-51
2021/01/21 11:12:06;;;;;;;40.53;36.85;;;31.00;56.30;;;;;;5033366;28;20253;-51
2021/01/21 11:14:37;;;;;;;41.92;37.95;;;31.00;56.40;;;;;;5018423;28;20306;-53
2021/01/21 11:17:09;;;;;;;39.67;35.88;;;30.80;56.50;;;;;;5022534;28;20276;-54
2021/01/21 11:19:41;;;;;;;37.00;33.42;;;30.70;56.70;;;;;;5010047;28;20265;-49
2021/01/21 11:22:11;;;;;;;41.92;37.83;;;30.60;56.80;;;;;;5024475;28;20245;-51
2021/01/21 11:24:41;;;;;;;40.60;36.85;;;30.50;57.00;;;;;;5014084;28;20230;-49
2021/01/21 11:27:12;;;;;;;38.20;34.55;;;30.40;57.00;;;;;;5020033;28;20227;-50
2021/01/21 11:29:43;;;;;;;42.55;38.45;;;30.30;57.20;;;;;;5023155;28;20285;-51
2021/01/21 11:32:14;;;;;;;44.20;40.03;;;30.20;57.30;;;;;;5017072;28;20235;-52
2021/01/21 11:34:45;;;;;;;43.42;39.00;;;30.20;57.60;;;;;;5026491;28;20234;-54
2021/01/21 11:37:16;;;;;;;41.95;37.92;;;30.10;57.60;;;;;;5024966;28;20234;-52
2021/01/21 11:39:46;;;;;;;42.20;38.17;;;30.00;57.70;;;;;;5016406;28;20239;-52
2021/01/21 11:42:17;;;;;;;44.50;40.20;;;29.90;57.90;;;;;;5011494;28;20710;-51
2021/01/21 11:44:48;;;;;;;41.22;37.25;;;29.80;58.00;;;;;;5018141;28;20797;-53
2021/01/21 11:47:19;;;;;;;43.08;38.90;;;29.70;58.10;;;;;;5003453;28;20282;-53
2021/01/21 11:49:50;;;;;;;39.72;35.95;;;29.70;58.30;;;;;;5033066;28;20293;-55
2021/01/21 11:52:20;;;;;;;42.08;38.15;;;29.60;58.50;;;;;;5030688;28;20640;-55
2021/01/21 11:54:51;;;;;;;48.13;43.75;;;29.60;58.50;;;;;;5022636;28;20828;-54
2021/01/21 11:57:21;;;;;;;47.38;42.97;;;29.50;58.60;;;;;;5026788;28;20242;-52
2021/01/21 12:00:03;;;;;;;46.40;41.80;;;29.40;58.60;;;;;;5020287;28;20234;-54
2021/01/21 12:02:36;;;;;;;48.88;44.33;;;29.30;58.60;;;;;;5021637;28;20314;-54
2021/01/21 12:05:07;;;;;;;45.22;40.75;;;29.30;58.80;;;;;;5027871;28;20239;-53
2021/01/21 12:07:38;;;;;;;42.08;38.25;;;29.20;58.90;;;;;;5030191;28;20229;-53
2021/01/21 12:10:10;;;;;;;43.00;38.95;;;29.10;58.90;;;;;;5030221;28;20260;-55
2021/01/21 12:12:41;;;;;;;46.22;41.70;;;29.00;59.00;;;;;;5025742;28;20304;-52
2021/01/21 12:15:13;;;;;;;51.42;46.65;;;29.00;59.20;;;;;;5030573;28;20559;-51
2021/01/21 12:17:45;;;;;;;49.75;44.90;;;28.90;59.40;;;;;;5034408;28;20250;-50
2021/01/21 12:20:16;;;;;;;52.53;47.53;;;28.80;59.50;;;;;;5032524;28;20257;-53
2021/01/21 12:22:49;;;;;;;53.67;48.42;;;28.80;59.60;;;;;;5031803;28;20223;-52
2021/01/21 12:25:19;;;;;;;55.50;49.60;;;28.80;59.80;;;;;;5032343;28;20305;-52
2021/01/21 12:27:51;;;;;;;50.70;45.50;;;28.70;59.90;;;;;;5026252;28;20225;-51
2021/01/21 12:30:22;;;;;;;48.67;43.70;;;28.70;60.10;;;;;;5028920;28;20231;-52
2021/01/21 12:32:54;;;;;;;48.88;43.97;;;28.60;60.10;;;;;;5023295;28;20250;-52
2021/01/21 12:35:25;;;;;;;46.65;42.05;;;28.50;60.20;;;;;;5029960;28;20226;-55
2021/01/21 12:37:55;;;;;;;50.55;45.53;;;28.50;60.30;;;;;;5027353;28;20310;-51
2021/01/21 12:40:26;;;;;;;50.33;45.33;;;28.50;60.50;;;;;;5029076;28;20226;-50
2021/01/21 12:42:56;;;;;;;50.20;44.95;;;28.40;60.80;;;;;;5025801;28;20326;-53
2021/01/21 12:45:27;;;;;;;48.60;43.55;;;28.40;60.80;;;;;;5018560;28;20237;-55
2021/01/21 12:47:59;;;;;;;52.05;46.67;;;28.30;60.80;;;;;;5028214;28;20308;-52
2021/01/21 12:50:30;;;;;;;55.42;49.60;;;28.30;61.30;;;;;;5030941;28;20317;-54
2021/01/21 12:53:00;;;;;;;56.40;50.47;;;28.20;61.40;;;;;;5030280;28;20234;-55
2021/01/21 12:55:31;;;;;;;58.83;52.70;;;28.20;61.70;;;;;;5028984;28;20937;-51
2021/01/21 12:58:01;;;;;;;60.88;54.55;;;28.10;61.70;;;;;;5028095;28;20266;-51